Quincy, KY

6:11 PM EDT on August 29, 2014 (GMT -0400)
RAWS SHAWNEE OH US | Change Station
CLOSE
Current Station
Personal Weather Station
Location: Friendship, OH
Elevation: 1067 ft
Nearby Weather Stations

Elev 1067 ft 38.69 °N, 83.20 °W | Updated 47 minutes ago

Clear
Clear
88 °F
Feels Like 92 °F
N
2
Wind Variable Wind from NNE
Gusts 4.0 mph

Today
High -- | Low -- °F
--% Chance of Precip.
Yesterday
High -- | Low -- °F
Precip. -- in
6:58 AM 8:06 PM
Waxing Crescent, 17% visible
Pressure 30.03 in
Visibility 10.0 miles
Clouds Clear
Heat Index 92 °F
Dew Point 69 °F
Humidity 53%
Rainfall 0.00 in
Snow Depth Not available.
UV 2 out of 12
Pollen 9.90 out of 12
Air Quality Not available.
Flu Activity Not available.
METAR KHTS 292151Z 10003KT 10SM CLR 30/19 A3003

More Conditions Fewer Conditions

Pressure 30.03 in
Visibility 10.0 miles
Clouds Clear
Heat Index 92 °F
Dew Point 69 °F
Humidity 53%
Rainfall 0.00 in
Snow Depth Not available.
UV 2 out of 12
Pollen 9.90 out of 12
Air Quality Not available.
Flu Activity Not available.
METAR KHTS 292151Z 10003KT 10SM CLR 30/19 A3003

More Conditions Fewer Conditions

10-Day Weather Forecast

Almanac

Astronomy

Aug. 29, 2014 Rise Set
Actual Time 6:58 AM EDT 8:06 PM EDT
Civil Twilight 6:31 AM EDT 8:34 PM EDT
Nautical Twilight 5:58 AM EDT 9:06 PM EDT
Astronomical Twilight 5:24 AM EDT 9:40 PM EDT
Moon 10:44 AM EDT 10:07 PM EDT
Length of Visible Light 14h 02m
Length of Day
13h 08m
Tomorrow will be 2m 23s shorter.
Waxing Crescent, 17% of the Moon is Illuminated
Today
Waxing Crescent
Sep 2
First Quarter
Sep 8
Full
Sep 15
Last Quarter
Sep 24
New

Today's Extremes

State Highs State Lows

Community

WunderPhotos

Upload Photos

1,748,356 photos uploaded!

Nearby

Snow Depth

Station Depth Elevation
No new snow has been reported.

Earthquake Activity

City Distance Mag. Time & Date
No recent earthquake activity has been reported nearby.
Minimum magnitude displayed is 2.5.

Coastal Water Temperatures

Place Temperature
No Stations Reporting

Nearby Weather Stations